• Join FlightAware (Why Join?)
  • Login
  • US Flag 
10:56PM EDT


 

Airport Tracker/Info


-or-


 

Live Flight TrackerFlight Track Log ✈ PDT4233 ✈ 02-Jan-2014 ✈ KPHL - KBUF

Flight Track Log - Related Links

Times and Time Zones

All times are in EST time to prevent confusion due to time zone crossing. See the PDT4233 flight status page for this flight to view local times or setup timezone preferences in your user account.

Time Position Orientation Groundspeed Altitude Reporting Facility
EST Latitude Longitude Course Direction KTS MPH feet Rate Location/Type
01:56PM 39.8833 -75.2000 323° Northwest 105 121 700  Level Philadelphia TRACON
01:58PM 40.0275 -75.4071 323° Northwest  Level Estimated
01:58PM 39.9500 -75.1667 21° North 170 196 3,200  Level Philadelphia TRACON
01:59PM 40.0792 -75.4627 311° West  Level Estimated
01:59PM 40.0000 -75.1833 346° North 158 182 4,800  Level Philadelphia TRACON
02:00PM 40.1309 -75.5183 311° West  Level Estimated
02:00PM 40.0333 -75.2000 339° North 182 209 5,700  Level Philadelphia TRACON
02:01PM 40.1846 -75.5707 323° Northwest  Level FlightAware Approximate
02:01PM 40.0667 -75.2500 311° West 160 184 7,100  Level Philadelphia TRACON
02:03PM 40.1233 -75.3856 299° West 170 196 9,000 720 Climbing New York Center
02:04PM 40.1569 -75.4342 312° West 187 215 9,800 960 Climbing New York Center
02:05PM 40.1922 -75.4908 309° West 192 221 11,000 900 Climbing New York Center
02:06PM 40.2211 -75.5444 305° West 175 201 11,700 720 Climbing New York Center
02:07PM 40.2653 -75.5856 325° Northwest 181 208 12,500 900 Climbing New York Center
02:08PM 40.3036 -75.6208 325° Northwest 193 222 13,500 960 Climbing New York Center
02:09PM 40.3414 -75.6644 319° Northwest 193 222 14,500 960 Climbing New York Center
02:10PM 40.3811 -75.7108 318° Northwest 180 207 15,500 720 Climbing New York Center
02:11PM 40.4167 -75.7542 317° Northwest 180 207 16,000 240 Climbing New York Center
02:12PM 40.4583 -75.8036 318° Northwest 186 214 16,000 -60 Level New York Center
02:13PM 40.4958 -75.8556 314° West 204 235 15,900  Descending New York Center
02:14PM 40.5411 -75.9189 313° West 214 246 16,000  Climbing New York Center
02:15PM 40.5908 -75.9692 322° Northwest 219 252 15,900 -60 Descending New York Center
02:16PM 40.6322 -76.0214 316° Northwest 214 246 15,900  Level New York Center
02:17PM 40.6844 -76.0692 325° Northwest 219 252 15,900  Level New York Center
02:18PM 40.7325 -76.1114 326° Northwest 227 261 15,900  Level New York Center
02:19PM 40.7761 -76.1642 318° Northwest 227 261 15,900  Level New York Center
02:20PM 40.8192 -76.2250 313° West 211 243 15,900  Level New York Center
02:21PM 40.8647 -76.2753 320° Northwest 214 246 15,900  Level New York Center
02:22PM 40.9100 -76.3283 318° Northwest 219 252 16,000  Climbing New York Center
02:23PM 40.9514 -76.3786 317° Northwest 219 252 15,900  Descending New York Center
02:24PM 40.9989 -76.4347 318° Northwest 214 246 16,000  Climbing New York Center
02:25PM 41.0425 -76.4822 321° Northwest 214 246 16,000 -60 Level New York Center
02:26PM 41.0919 -76.5333 322° Northwest 227 261 15,900 -60 Descending New York Center
02:27PM 41.1433 -76.5928 319° Northwest 227 261 15,900  Level New York Center
02:28PM 41.1861 -76.6517 314° West 227 261 15,900  Level New York Center
02:29PM 41.2378 -76.7058 322° Northwest 227 261 15,900  Level New York Center
02:30PM 41.2872 -76.7572 322° Northwest 227 261 15,900  Level New York Center
02:31PM 41.3281 -76.8133 314° West 222 255 16,000  Climbing New York Center
02:32PM 41.3733 -76.8669 318° Northwest 217 250 16,000  Level New York Center
02:33PM 41.4269 -76.9161 325° Northwest 217 250 16,000 -60 Level New York Center
02:34PM 41.4786 -76.9653 325° Northwest 223 257 15,900  Descending New York Center
02:35PM 41.5169 -77.0269 310° West 223 257 16,000  Climbing New York Center
02:36PM 41.5597 -77.0836 315° West 217 250 16,000  Level New York Center
02:38PM 41.6583 -77.1819 323° Northwest 230 265 16,000  Level Cleveland Center
02:39PM 41.7161 -77.2500 319° Northwest 231 266 16,000  Level Cleveland Center
02:40PM 41.7547 -77.3128 310° West 219 252 16,000  Level Cleveland Center
02:41PM 41.8078 -77.3647 324° Northwest 233 268 16,000  Level Cleveland Center
02:42PM 41.8606 -77.4186 323° Northwest 239 275 16,000  Level Cleveland Center
02:43PM 41.9006 -77.4814 311° West 225 259 16,000  Level Cleveland Center
02:45PM 41.9492 -77.5364 320° Northwest 227 261 16,000 -120 Level Cleveland Center
02:46PM 41.9981 -77.5908 320° Northwest 227 261 15,800 -300 Descending Cleveland Center
02:47PM 42.0564 -77.6628 318° Northwest 235 270 15,400 -480 Descending Cleveland Center
02:48PM 42.1100 -77.7203 321° Northwest 244 281 14,900 -540 Descending Cleveland Center
02:49PM 42.1572 -77.7861 314° West 244 281 14,400 -540 Descending Cleveland Center
02:50PM 42.2072 -77.8500 317° Northwest 246 283 13,900 -840 Descending Cleveland Center
02:51PM 42.2625 -77.9128 320° Northwest 254 292 12,800 -1,020 Descending Cleveland Center
02:52PM 42.3125 -77.9822 314° West 257 296 11,900 -900 Descending Cleveland Center
02:53PM 42.3617 -78.0528 313° West 257 296 11,000 -420 Descending Cleveland Center
02:54PM 42.4156 -78.1097 322° Northwest 247 284 11,100 -480 Climbing Cleveland Center
02:55PM 42.4694 -78.1911 312° West 242 278 10,100 -960 Descending Cleveland Center
02:56PM 42.5183 -78.2614 313° West 252 290 9,200 -900 Descending Cleveland Center
02:57PM 42.5683 -78.3336 313° West 261 300 8,300 -960 Descending Cleveland Center
02:58PM 42.6050 -78.4139 302° West 255 293 7,300 -1,080 Descending Cleveland Center
02:59PM 42.6364 -78.4992 297° West 252 290 6,200 -1,020 Descending Cleveland Center
03:00PM 42.6611 -78.6039 288° West 256 295 5,300 -1,080 Descending Cleveland Center
03:01PM 42.6853 -78.6906 291° West 255 293 4,000 -780 Descending Cleveland Center
03:02PM 42.7089 -78.7864 289° West 254 292 3,700 -480 Descending Cleveland Center
03:03PM 42.7294 -78.8853 286° West 260 299 3,100 -360 Descending Cleveland Center
03:04PM 42.7517 -78.9733 289° West 242 278 3,000 -60 Descending Cleveland Center
03:05PM 42.7836 -78.9411 37° Northeast 169 194 3,000 -300 Level Cleveland Center
03:06PM 42.8111 -78.8997 48° Northeast 149 171 2,500 -300 Descending Cleveland Center
03:07PM 42.8419 -78.8581 45° Northeast 151 174 2,400 -60 Descending Cleveland Center
03:08PM 42.8697 -78.8219 44° Northeast 138 159 2,400 -240 Level Cleveland Center
03:09PM 42.8833 -78.8000 50° Northeast 115 132 2,000 -600 Descending Buffalo TRACON
03:10PM 42.9000 -78.7667 56° Northeast 85 98 1,400 -600 Descending Buffalo TRACON
03:11PM 42.9167 -78.7500 36° Northeast 87 100 900 -540 Descending Buffalo TRACON